Time;durP1;ratioP1;P1;durP2;ratioP2;P2;SDS_P1;SDS_P2;PMS_P1;PMS_P2;Temp;Humidity;BMP_temperature;BMP_pressure;BME280_temperature;BME280_humidity;BME280_pressure;Samples;Min_cycle;Max_cycle;Signal;HPM_P1;HPM_P2
2023/03/20 00:00:28;;;;;;;104.77;50.03;;;;;;;6.37;81.46;94975.81;6213462;23;20697;-81
2023/03/20 00:02:56;;;;;;;94.20;43.70;;;;;;;6.39;80.37;94963.50;6213735;23;20231;-82
2023/03/20 00:05:25;;;;;;;91.50;45.30;;;;;;;6.28;81.55;94976.91;6213681;23;20166;-83
2023/03/20 00:08:13;;;;;;;89.70;43.17;;;;;;;6.01;81.73;94928.56;6212418;23;20174;-86
2023/03/20 00:10:44;;;;;;;66.13;35.13;;;;;;;6.08;81.44;94957.84;6202070;23;20166;-82
2023/03/20 00:13:15;;;;;;;78.37;39.67;;;;;;;6.07;81.82;94963.97;6213364;23;20197;-82
2023/03/20 00:15:50;;;;;;;70.63;36.67;;;;;;;5.95;82.13;94948.16;6213793;23;20216;-84
2023/03/20 00:18:21;;;;;;;76.97;39.57;;;;;;;5.98;83.48;94957.31;6199142;23;20190;-82
2023/03/20 00:20:49;;;;;;;81.37;39.97;;;;;;;5.96;83.68;94956.72;6215315;23;20159;-82
2023/03/20 00:23:17;;;;;;;86.87;42.03;;;;;;;6.00;83.75;94952.78;6213311;23;20201;-82
2023/03/20 00:25:46;;;;;;;85.87;42.13;;;;;;;5.92;83.65;94952.88;6212359;23;20653;-82
2023/03/20 00:28:43;;;;;;;88.87;42.53;;;;;;;5.89;84.20;94958.44;6213428;23;20166;-84
2023/03/20 00:31:20;;;;;;;83.63;41.30;;;;;;;5.94;83.60;94950.94;6213376;23;20162;-82
2023/03/20 00:33:47;;;;;;;79.83;41.13;;;;;;;5.85;84.40;94952.00;6213098;23;20189;-82
2023/03/20 00:36:14;;;;;;;74.67;40.13;;;;;;;5.98;83.97;94958.13;6216263;23;20163;-82
2023/03/20 00:38:41;;;;;;;80.10;39.87;;;;;;;5.96;83.79;94948.97;6212025;23;20556;-82
2023/03/20 00:41:21;;;;;;;74.60;40.47;;;;;;;5.94;83.61;94949.16;6212214;23;20570;-82
2023/03/20 00:43:51;;;;;;;76.83;38.23;;;;;;;5.83;83.87;94941.84;6212957;23;20169;-81
2023/03/20 00:46:18;;;;;;;86.10;40.10;;;;;;;5.85;84.37;94952.00;6213929;23;20209;-81
2023/03/20 00:48:46;;;;;;;80.50;39.47;;;;;;;5.70;84.54;94934.78;6213563;23;20166;-82
2023/03/20 00:51:13;;;;;;;83.07;40.80;;;;;;;5.56;85.59;94925.28;6213826;23;20166;-81
2023/03/20 00:53:40;;;;;;;77.77;39.00;;;;;;;5.83;84.60;94943.66;6213227;23;20200;-80
2023/03/20 00:56:17;;;;;;;91.20;42.53;;;;;;;5.81;85.13;94948.16;6215502;23;20232;-79
2023/03/20 00:58:46;;;;;;;87.70;43.83;;;;;;;5.66;85.39;94930.16;6212339;23;20543;-81
2023/03/20 01:01:13;;;;;;;74.50;39.20;;;;;;;5.73;85.22;94938.78;6213189;23;20161;-82
2023/03/20 01:03:40;;;;;;;84.73;38.43;;;;;;;5.70;85.02;94937.34;6213717;23;20201;-81
2023/03/20 01:06:06;;;;;;;73.20;38.67;;;;;;;5.62;85.34;94934.88;6213125;23;20180;-81
2023/03/20 01:08:33;;;;;;;67.90;33.57;;;;;;;5.61;85.73;94935.06;6213455;23;20192;-83
2023/03/20 01:11:00;;;;;;;76.00;34.93;;;;;;;5.63;85.72;94928.72;6213350;23;20200;-82
2023/03/20 01:13:29;;;;;;;54.80;31.43;;;;;;;5.61;86.38;94932.47;6213748;23;20564;-81
2023/03/20 01:15:59;;;;;;;53.93;28.07;;;;;;;5.54;86.52;94927.22;6188934;23;20162;-80
2023/03/20 01:18:26;;;;;;;55.77;29.37;;;;;;;5.49;86.30;94913.28;6212928;23;20180;-81
2023/03/20 01:20:54;;;;;;;54.00;27.80;;;;;;;5.55;85.92;94926.25;6212978;23;20224;-80
2023/03/20 01:23:23;;;;;;;44.23;21.30;;;;;;;5.60;84.93;94915.41;6213103;23;20169;-79
2023/03/20 01:25:50;;;;;;;60.27;32.07;;;;;;;5.60;85.78;94921.34;6213154;23;20228;-80
2023/03/20 01:28:19;;;;;;;68.10;33.37;;;;;;;5.57;86.11;94906.25;6213282;23;20174;-78
2023/03/20 01:30:46;;;;;;;66.97;32.47;;;;;;;5.57;86.65;94913.22;6213482;23;20173;-79
2023/03/20 01:33:17;;;;;;;57.43;30.23;;;;;;;5.42;85.97;94907.28;6214026;23;20638;-80
2023/03/20 01:35:44;;;;;;;56.30;29.57;;;;;;;5.53;86.36;94914.53;6212418;23;20170;-80
2023/03/20 01:38:18;;;;;;;51.77;29.33;;;;;;;5.45;87.35;94919.81;6213007;23;20296;-80
2023/03/20 01:40:54;;;;;;;51.10;28.80;;;;;;;5.43;86.68;94921.75;6213323;23;20199;-81
2023/03/20 01:43:23;;;;;;;54.43;28.10;;;;;;;5.36;87.65;94918.28;6213091;23;20177;-81
2023/03/20 01:45:59;;;;;;;51.67;27.73;;;;;;;5.37;86.97;94928.41;6213615;23;20181;-81
2023/03/20 01:48:36;;;;;;;48.73;27.53;;;;;;;5.36;87.77;94926.84;6204274;23;20161;-81
2023/03/20 01:51:03;;;;;;;50.53;27.40;;;;;;;5.26;87.65;94926.28;6212685;23;20161;-80
2023/03/20 01:53:30;;;;;;;50.57;26.47;;;;;;;5.25;87.77;94934.22;6212482;23;20196;-80
2023/03/20 01:55:59;;;;;;;55.20;29.57;;;;;;;5.19;88.48;94932.34;6212526;23;20179;-80
2023/03/20 01:58:34;;;;;;;51.37;28.93;;;;;;;5.24;88.21;94925.69;6212160;23;20262;-79
2023/03/20 02:01:02;;;;;;;50.80;29.43;;;;;;;5.29;87.58;94935.44;6212054;23;20161;-79
2023/03/20 02:03:31;;;;;;;55.50;30.77;;;;;;;5.29;88.16;94933.66;6211585;23;20652;-80
2023/03/20 02:05:59;;;;;;;56.43;29.10;;;;;;;5.26;88.56;94933.22;6212015;23;20492;-81
2023/03/20 02:08:28;;;;;;;51.47;29.37;;;;;;;5.12;88.78;94909.06;6213329;23;20166;-81
2023/03/20 02:10:56;;;;;;;50.73;27.67;;;;;;;5.11;88.80;94920.34;6213244;23;20557;-81
2023/03/20 02:13:26;;;;;;;52.57;29.63;;;;;;;5.05;89.70;94914.13;6213425;23;20165;-81
2023/03/20 02:16:02;;;;;;;54.23;28.83;;;;;;;5.10;89.01;94919.56;6212572;23;20176;-81
2023/03/20 02:18:32;;;;;;;58.40;30.03;;;;;;;5.02;90.23;94932.50;6212670;23;20153;-80
2023/03/20 02:21:42;;;;;;;53.00;28.13;;;;;;;5.08;88.88;94926.66;6213273;23;20248;-80
2023/03/20 02:24:52;;;;;;;50.13;26.07;;;;;;;4.95;88.47;94928.25;6212883;23;20198;-81
2023/03/20 02:27:25;;;;;;;58.37;29.83;;;;;;;4.93;89.69;94927.63;6212271;23;20177;-80
2023/03/20 02:30:42;;;;;;;58.07;28.60;;;;;;;4.88;90.03;94935.06;6212446;23;20252;-80
2023/03/20 02:33:57;;;;;;;48.47;26.67;;;;;;;4.92;89.17;94937.13;6211637;23;20498;-81
2023/03/20 02:37:02;;;;;;;57.40;30.10;;;;;;;4.97;89.38;94926.28;6193538;23;20171;-81
2023/03/20 02:39:43;;;;;;;60.03;30.70;;;;;;;4.95;90.07;94913.59;6217560;23;20183;-81
2023/03/20 02:42:19;;;;;;;55.37;29.47;;;;;;;4.90;90.21;94913.34;6212451;23;20169;-82
2023/03/20 02:44:54;;;;;;;54.40;28.57;;;;;;;4.98;89.71;94922.75;6212737;23;20212;-82
2023/03/20 02:47:24;;;;;;;51.63;28.50;;;;;;;4.97;89.94;94921.13;6200470;23;20176;-83
2023/03/20 02:49:56;;;;;;;49.90;28.07;;;;;;;4.86;89.62;94900.97;6212134;23;20624;-83
2023/03/20 02:52:34;;;;;;;61.30;27.80;;;;;;;4.83;89.81;94914.19;6212694;23;20609;-80
2023/03/20 02:55:13;;;;;;;62.87;28.80;;;;;;;4.81;90.46;94922.13;6212513;23;20163;-80
2023/03/20 02:57:48;;;;;;;48.50;26.70;;;;;;;4.78;90.27;94913.94;6213552;23;20168;-80
2023/03/20 03:00:23;;;;;;;48.70;23.33;;;;;;;4.73;90.14;94909.31;6211625;23;20234;-83
2023/03/20 03:02:57;;;;;;;49.67;24.63;;;;;;;4.73;90.24;94916.25;6212617;23;20482;-82
2023/03/20 03:05:29;;;;;;;45.20;25.17;;;;;;;4.66;90.26;94915.34;6212193;23;20163;-82
2023/03/20 03:08:00;;;;;;;43.63;22.93;;;;;;;4.75;90.17;94916.84;6210939;23;20172;-82
2023/03/20 03:10:34;;;;;;;45.13;23.20;;;;;;;4.71;89.90;94913.03;6211613;23;20161;-83
2023/03/20 03:13:03;;;;;;;47.40;23.30;;;;;;;4.70;90.36;94906.28;6216505;23;20160;-83
2023/03/20 03:15:34;;;;;;;52.80;26.93;;;;;;;4.76;90.08;94915.91;6213454;23;20171;-82
2023/03/20 03:18:03;;;;;;;55.07;28.00;;;;;;;4.79;89.91;94907.81;6211529;23;20168;-82
2023/03/20 03:20:33;;;;;;;49.90;27.23;;;;;;;4.74;90.23;94912.66;6211288;23;20689;-85
2023/03/20 03:23:00;;;;;;;54.93;28.30;;;;;;;4.66;90.17;94899.88;6211405;23;20206;-84
2023/03/20 03:25:34;;;;;;;44.43;25.97;;;;;;;4.64;90.06;94904.41;6211654;23;20520;-83
2023/03/20 03:28:05;;;;;;;43.67;24.07;;;;;;;4.69;90.84;94908.06;6212123;23;20561;-85
2023/03/20 03:30:38;;;;;;;43.03;22.57;;;;;;;4.73;89.37;94916.25;6212922;23;20157;-85
2023/03/20 03:33:19;;;;;;;58.70;26.17;;;;;;;4.67;90.23;94914.38;6216876;23;20165;-86
2023/03/20 03:35:46;;;;;;;53.07;26.80;;;;;;;4.34;91.42;94886.34;6219875;23;20169;-84
2023/03/20 03:38:28;;;;;;;50.83;26.27;;;;;;;4.48;91.38;94916.44;6213778;23;20542;-84
2023/03/20 03:41:12;;;;;;;53.33;24.83;;;;;;;4.40;92.00;94916.53;6213128;23;20176;-84
2023/03/20 03:43:44;;;;;;;48.80;26.93;;;;;;;4.55;91.28;94916.56;6211725;23;20648;-84
2023/03/20 03:46:17;;;;;;;68.90;28.03;;;;;;;4.55;91.50;94914.78;6211936;23;20176;-84
2023/03/20 03:48:49;;;;;;;58.40;26.50;;;;;;;4.34;92.46;94888.91;6212063;23;20170;-84
2023/03/20 03:51:20;;;;;;;47.80;26.10;;;;;;;4.52;91.81;94906.63;6217165;23;20172;-83
2023/03/20 03:53:53;;;;;;;46.57;24.43;;;;;;;4.51;91.39;94908.38;6212710;23;20162;-81
2023/03/20 03:56:26;;;;;;;56.33;25.83;;;;;;;4.48;91.60;94905.34;6211869;23;20162;-81
2023/03/20 03:58:56;;;;;;;47.57;25.63;;;;;;;4.45;91.38;94895.41;6212242;23;20202;-81
2023/03/20 04:01:24;;;;;;;49.47;25.27;;;;;;;4.41;91.86;94894.19;6211999;23;20552;-80
2023/03/20 04:03:53;;;;;;;46.90;26.13;;;;;;;4.34;92.44;94901.78;6211508;23;20193;-80
2023/03/20 04:06:21;;;;;;;52.10;25.33;;;;;;;4.37;92.59;94904.00;6211462;23;20195;-80
2023/03/20 04:08:48;;;;;;;51.87;25.07;;;;;;;4.44;91.68;94904.91;6212144;23;20180;-83
2023/03/20 04:11:37;;;;;;;44.27;22.37;;;;;;;4.42;90.97;94898.31;6213769;23;20633;-85
2023/03/20 04:14:04;;;;;;;45.23;24.53;;;;;;;4.41;91.95;94892.41;6194378;23;20216;-83
2023/03/20 04:16:30;;;;;;;44.83;23.07;;;;;;;4.42;90.77;94894.00;6212454;23;20172;-83
2023/03/20 04:18:57;;;;;;;48.77;24.87;;;;;;;4.37;91.90;94891.16;6213709;23;20635;-82
2023/03/20 04:21:26;;;;;;;52.93;25.40;;;;;;;4.36;92.28;94886.97;6213608;23;20170;-83
2023/03/20 04:23:53;;;;;;;57.77;26.63;;;;;;;4.38;92.96;94879.88;6213955;23;20195;-82
2023/03/20 04:26:28;;;;;;;59.63;26.43;;;;;;;4.24;92.68;94860.06;6213738;23;20192;-83
2023/03/20 04:28:56;;;;;;;51.07;26.20;;;;;;;4.40;91.90;94887.41;6214823;23;20157;-82
2023/03/20 04:31:23;;;;;;;50.70;24.43;;;;;;;4.40;91.92;94890.00;6214078;23;20172;-82
2023/03/20 04:33:50;;;;;;;49.47;27.20;;;;;;;4.22;92.33;94882.59;6213474;23;20221;-81
2023/03/20 04:36:17;;;;;;;53.00;28.37;;;;;;;4.32;92.01;94893.44;6200989;23;20178;-82
2023/03/20 04:38:43;;;;;;;62.47;30.83;;;;;;;4.25;93.41;94894.28;6213257;23;20168;-81
2023/03/20 04:41:10;;;;;;;54.30;27.13;;;;;;;4.11;93.50;94874.47;6212294;23;20524;-81
2023/03/20 04:43:38;;;;;;;61.80;29.60;;;;;;;4.29;92.69;94909.22;6212927;23;20849;-79
2023/03/20 04:46:09;;;;;;;59.23;30.33;;;;;;;4.34;92.14;94918.97;6213172;23;20231;-81
2023/03/20 04:48:36;;;;;;;56.67;27.83;;;;;;;4.37;92.71;94918.63;6213023;23;20156;-80
2023/03/20 04:51:03;;;;;;;57.07;29.67;;;;;;;4.34;92.48;94916.41;6212816;23;20169;-81
2023/03/20 04:53:30;;;;;;;60.87;33.03;;;;;;;4.35;92.97;94918.03;6212914;23;20184;-81
2023/03/20 04:55:56;;;;;;;62.97;34.80;;;;;;;4.34;92.93;94927.50;6212888;23;20173;-81
2023/03/20 04:58:23;;;;;;;80.87;39.27;;;;;;;4.38;92.64;94922.81;6213393;23;20179;-81
2023/03/20 05:00:50;;;;;;;84.03;41.33;;;;;;;4.36;93.23;94925.56;6214522;23;20172;-82
2023/03/20 05:03:18;;;;;;;73.30;38.60;;;;;;;4.39;93.27;94930.34;6212813;23;20172;-81
2023/03/20 05:05:45;;;;;;;81.77;41.90;;;;;;;4.41;93.11;94923.28;6212885;23;20175;-81
2023/03/20 05:08:12;;;;;;;109.93;55.10;;;;;;;4.41;93.64;94923.28;6213051;23;20579;-80
2023/03/20 05:10:39;;;;;;;116.77;54.33;;;;;;;4.43;92.90;94923.09;6212742;23;20173;-79
2023/03/20 05:13:05;;;;;;;125.00;61.20;;;;;;;4.45;93.11;94928.84;6212802;23;20173;-79
2023/03/20 05:15:32;;;;;;;150.57;77.10;;;;;;;4.46;93.79;94927.91;6212929;23;20629;-79
2023/03/20 05:17:59;;;;;;;140.43;78.43;;;;;;;4.52;93.97;94937.50;6212904;23;20168;-80
2023/03/20 05:20:27;;;;;;;151.60;79.20;;;;;;;4.55;93.53;94944.88;6212917;23;20628;-79
2023/03/20 05:22:54;;;;;;;146.80;78.27;;;;;;;4.63;93.41;94937.06;6216689;23;20243;-83
2023/03/20 05:25:21;;;;;;;125.60;67.70;;;;;;;4.59;93.30;94938.38;6213110;23;20522;-81
2023/03/20 05:27:52;;;;;;;123.23;66.77;;;;;;;4.76;92.56;94944.97;6209342;23;20180;-81
2023/03/20 05:30:19;;;;;;;127.13;68.27;;;;;;;4.81;93.18;94937.56;6212452;23;20167;-82
2023/03/20 05:32:46;;;;;;;124.57;66.00;;;;;;;4.91;93.01;94939.84;6212746;23;20517;-80
2023/03/20 05:35:13;;;;;;;127.17;65.40;;;;;;;4.99;93.03;94942.38;6212668;23;20185;-80
2023/03/20 05:37:44;;;;;;;127.63;63.50;;;;;;;5.07;92.16;94939.72;6212201;23;20173;-81
2023/03/20 05:40:13;;;;;;;117.50;59.17;;;;;;;5.05;92.30;94945.03;6214807;23;20164;-80
2023/03/20 05:42:40;;;;;;;114.53;58.33;;;;;;;5.08;91.77;94933.56;6213102;23;20235;-80
2023/03/20 05:45:08;;;;;;;113.37;58.10;;;;;;;5.21;92.15;94940.69;6212559;23;20236;-80
2023/03/20 05:47:37;;;;;;;148.90;64.97;;;;;;;5.26;91.95;94946.91;6212217;23;20162;-79
2023/03/20 05:50:05;;;;;;;124.67;60.63;;;;;;;5.38;91.05;94939.53;6212889;23;20193;-79
2023/03/20 05:52:32;;;;;;;113.57;57.23;;;;;;;5.45;89.57;94941.22;6212128;23;20231;-80
2023/03/20 05:55:00;;;;;;;107.90;51.60;;;;;;;5.50;89.73;94949.22;6211864;23;20576;-79
2023/03/20 05:57:28;;;;;;;117.73;52.33;;;;;;;5.55;89.60;94946.88;6212165;23;20173;-83
2023/03/20 05:59:55;;;;;;;99.70;49.50;;;;;;;5.58;90.19;94941.38;6211573;23;20202;-84
2023/03/20 06:02:22;;;;;;;93.53;45.67;;;;;;;5.62;90.21;94941.81;6214470;23;20186;-83
2023/03/20 06:04:48;;;;;;;84.80;41.73;;;;;;;5.66;90.02;94940.47;6212638;23;20228;-82
2023/03/20 06:07:15;;;;;;;71.53;37.67;;;;;;;5.81;88.78;94945.59;6212519;23;20170;-83
2023/03/20 06:09:42;;;;;;;73.23;36.70;;;;;;;5.94;87.59;94944.00;6212903;23;20174;-82
2023/03/20 06:12:11;;;;;;;67.67;35.60;;;;;;;5.97;87.24;94948.00;6212599;23;20518;-82
2023/03/20 06:14:38;;;;;;;79.13;35.87;;;;;;;6.00;87.76;94943.25;6213783;23;20162;-83
2023/03/20 06:17:04;;;;;;;64.10;33.50;;;;;;;6.04;87.46;94947.06;6213524;23;20166;-83
2023/03/20 06:19:31;;;;;;;60.77;32.43;;;;;;;6.15;86.74;94945.78;6215282;23;20176;-81
2023/03/20 06:21:58;;;;;;;54.67;28.37;;;;;;;6.17;86.76;94942.06;6227491;23;20177;-82
2023/03/20 06:24:25;;;;;;;55.60;29.27;;;;;;;6.17;86.45;94930.94;6216143;23;20204;-82
2023/03/20 06:26:52;;;;;;;52.33;27.63;;;;;;;6.22;85.09;94941.50;6212292;23;20715;-79
2023/03/20 06:29:20;;;;;;;51.90;27.93;;;;;;;6.32;85.16;94951.53;6211938;23;20174;-79
2023/03/20 06:31:47;;;;;;;50.27;26.00;;;;;;;6.37;84.77;94949.19;6211654;23;20174;-79
2023/03/20 06:34:14;;;;;;;55.43;26.27;;;;;;;6.45;84.58;94954.22;6211624;23;20711;-79
2023/03/20 06:36:41;;;;;;;53.83;26.23;;;;;;;6.39;84.34;94937.69;6212336;23;20175;-80
2023/03/20 06:39:08;;;;;;;47.97;25.27;;;;;;;6.52;84.44;94955.09;6212271;23;20166;-79
2023/03/20 06:41:34;;;;;;;51.50;24.40;;;;;;;6.59;84.07;94949.00;6211842;23;20201;-77
2023/03/20 06:44:02;;;;;;;47.17;25.47;;;;;;;6.71;83.76;94957.03;6212970;23;20173;-79
2023/03/20 06:46:31;;;;;;;47.40;25.10;;;;;;;6.82;82.39;94957.31;6223849;23;20252;-79
2023/03/20 06:48:58;;;;;;;47.07;23.90;;;;;;;6.95;82.25;94953.25;6222760;23;20174;-78
2023/03/20 06:51:25;;;;;;;46.40;23.43;;;;;;;7.07;80.87;94949.94;6222258;23;20174;-79
2023/03/20 06:53:52;;;;;;;51.27;24.43;;;;;;;7.15;80.56;94939.47;6222712;23;20201;-78
2023/03/20 06:56:19;;;;;;;50.27;23.90;;;;;;;7.24;79.67;94945.28;6222189;23;20170;-78
2023/03/20 06:58:46;;;;;;;49.80;23.50;;;;;;;7.26;80.28;94946.69;6222747;23;20210;-77
2023/03/20 07:01:15;;;;;;;51.17;23.87;;;;;;;7.41;78.81;94951.75;6213745;23;20170;-78
2023/03/20 07:03:44;;;;;;;52.40;24.60;;;;;;;7.41;77.95;94933.66;6212657;23;20588;-78
2023/03/20 07:06:12;;;;;;;46.83;23.60;;;;;;;7.57;77.09;94937.69;6212689;23;20200;-78
2023/03/20 07:08:39;;;;;;;44.20;22.20;;;;;;;7.48;77.55;94928.50;6213144;23;20166;-78
2023/03/20 07:11:07;;;;;;;49.83;23.00;;;;;;;7.64;77.96;94946.28;6212951;23;20186;-79
2023/03/20 07:13:33;;;;;;;42.30;22.37;;;;;;;7.77;77.62;94935.97;6212553;23;20201;-79
2023/03/20 07:16:02;;;;;;;46.60;23.00;;;;;;;7.81;75.58;94919.09;6211791;23;20482;-80
2023/03/20 07:18:29;;;;;;;49.20;23.37;;;;;;;8.02;75.39;94934.50;6212456;23;20163;-79
2023/03/20 07:21:01;;;;;;;42.63;21.77;;;;;;;8.06;75.11;94935.69;6210769;23;20249;-79
2023/03/20 07:23:29;;;;;;;43.43;21.47;;;;;;;8.18;74.17;94938.50;6211714;23;20155;-78
2023/03/20 07:25:56;;;;;;;49.23;21.40;;;;;;;8.19;73.73;94932.34;6211275;23;20572;-78
2023/03/20 07:28:24;;;;;;;45.20;21.90;;;;;;;8.23;73.52;94926.56;6211786;23;20514;-79
2023/03/20 07:30:51;;;;;;;44.97;21.97;;;;;;;8.31;73.37;94936.75;6213614;23;20166;-78
2023/03/20 07:33:24;;;;;;;48.33;21.40;;;;;;;8.38;73.69;94937.59;6199266;23;20212;-82
2023/03/20 07:35:53;;;;;;;46.70;21.93;;;;;;;8.45;73.60;94946.16;6211914;23;20178;-80
2023/03/20 07:38:21;;;;;;;39.80;20.27;;;;;;;8.49;73.81;94933.59;6211495;23;20190;-79
2023/03/20 07:40:49;;;;;;;39.60;20.60;;;;;;;8.65;72.20;94933.22;6211798;23;20167;-80
2023/03/20 07:43:16;;;;;;;39.77;21.53;;;;;;;8.73;71.31;94937.41;6211655;23;20174;-79
2023/03/20 07:45:43;;;;;;;41.40;20.60;;;;;;;8.85;70.33;94944.41;6212087;23;20194;-80
2023/03/20 07:48:09;;;;;;;43.23;20.77;;;;;;;8.78;69.96;94932.41;6211262;23;20166;-80
2023/03/20 07:50:36;;;;;;;46.80;21.17;;;;;;;8.87;70.92;94944.97;6210618;23;20228;-79
2023/03/20 07:53:03;;;;;;;42.60;21.83;;;;;;;8.88;71.24;94944.00;6214289;23;20163;-82
2023/03/20 07:55:31;;;;;;;35.30;20.43;;;;;;;8.99;71.14;94943.38;6215286;23;20167;-82
2023/03/20 07:57:58;;;;;;;39.97;20.23;;;;;;;9.09;69.84;94930.78;6214669;23;20189;-82
2023/03/20 08:00:26;;;;;;;33.20;18.93;;;;;;;9.19;69.30;94932.19;6214041;23;20245;-82
2023/03/20 08:02:55;;;;;;;32.97;17.93;;;;;;;9.19;71.00;94930.38;6213775;23;20760;-79
2023/03/20 08:05:22;;;;;;;27.63;16.67;;;;;;;9.27;70.96;94922.41;6212567;23;20669;-81
2023/03/20 08:07:50;;;;;;;39.13;18.57;;;;;;;9.49;71.33;94935.91;6213737;23;20174;-81
2023/03/20 08:10:17;;;;;;;31.23;17.37;;;;;;;9.54;68.67;94943.88;6213328;23;20178;-79
2023/03/20 08:12:46;;;;;;;35.93;17.50;;;;;;;9.56;70.91;94932.28;6213074;23;20170;-79
2023/03/20 08:15:13;;;;;;;30.83;17.77;;;;;;;9.55;69.52;94904.75;6214678;23;20241;-79
2023/03/20 08:17:42;;;;;;;38.73;19.77;;;;;;;9.85;68.89;94930.19;6213237;23;20163;-80
2023/03/20 08:20:10;;;;;;;35.03;18.77;;;;;;;9.82;66.52;94936.59;6212686;23;20521;-79
2023/03/20 08:22:37;;;;;;;32.53;17.90;;;;;;;9.88;66.22;94940.16;6213277;23;20189;-80
2023/03/20 08:25:05;;;;;;;38.33;20.40;;;;;;;9.90;65.14;94931.16;6213149;23;20205;-80
2023/03/20 08:27:32;;;;;;;37.20;18.73;;;;;;;9.95;66.49;94936.56;6212909;23;20641;-80
2023/03/20 08:30:00;;;;;;;34.40;18.77;;;;;;;10.19;65.40;94937.63;6213041;23;20169;-80
2023/03/20 08:32:27;;;;;;;35.53;17.77;;;;;;;10.25;66.13;94942.00;6212837;23;20236;-79
2023/03/20 08:34:54;;;;;;;37.03;17.93;;;;;;;10.16;66.01;94923.28;6213555;23;20166;-81
2023/03/20 08:37:21;;;;;;;35.27;18.03;;;;;;;10.42;64.77;94939.72;6213510;23;20170;-79
2023/03/20 08:39:49;;;;;;;34.90;17.90;;;;;;;10.46;62.46;94928.69;6211793;23;20174;-80
2023/03/20 08:42:16;;;;;;;29.87;17.20;;;;;;;10.61;62.18;94931.81;6211847;23;20174;-80
2023/03/20 08:44:42;;;;;;;31.77;16.80;;;;;;;10.76;61.65;94936.69;6212572;23;20197;-80
2023/03/20 08:47:11;;;;;;;37.17;17.27;;;;;;;10.91;60.46;94939.75;6212968;23;20174;-80
2023/03/20 08:49:37;;;;;;;35.27;16.73;;;;;;;11.00;60.75;94935.06;6212767;23;20174;-80
2023/03/20 08:52:05;;;;;;;30.17;15.77;;;;;;;11.12;59.07;94941.19;6214165;23;20233;-79
2023/03/20 08:54:32;;;;;;;29.00;15.30;;;;;;;11.20;58.32;94930.50;6212255;23;20587;-80
2023/03/20 08:56:59;;;;;;;30.57;15.97;;;;;;;11.30;58.05;94929.00;6215225;23;20194;-80
2023/03/20 08:59:26;;;;;;;26.07;16.07;;;;;;;11.47;57.27;94934.44;6213248;23;20194;-79
2023/03/20 09:01:53;;;;;;;32.83;17.10;;;;;;;11.66;57.62;94937.84;6213213;23;20178;-80
2023/03/20 09:04:21;;;;;;;31.80;16.00;;;;;;;11.86;56.74;94935.84;6213326;23;20170;-81
2023/03/20 09:06:49;;;;;;;31.93;16.10;;;;;;;12.09;55.98;94932.56;6220522;23;20194;-81
2023/03/20 09:09:18;;;;;;;25.73;16.00;;;;;;;12.26;54.53;94933.53;6218990;23;20240;-79
2023/03/20 09:11:45;;;;;;;30.03;16.07;;;;;;;12.46;53.88;94934.06;6213302;23;20178;-79
2023/03/20 09:14:12;;;;;;;27.53;16.17;;;;;;;12.66;52.52;94931.16;6212949;23;20208;-80
2023/03/20 09:16:39;;;;;;;25.93;16.07;;;;;;;12.82;52.36;94927.91;6213108;23;20228;-80
2023/03/20 09:19:06;;;;;;;24.37;14.97;;;;;;;13.01;52.37;94922.38;6214728;23;20170;-80
2023/03/20 09:21:34;;;;;;;30.13;16.43;;;;;;;13.27;51.95;94915.94;6213394;23;20170;-83
2023/03/20 09:24:01;;;;;;;26.60;15.80;;;;;;;13.54;50.24;94916.25;6213132;23;20167;-82
2023/03/20 09:26:27;;;;;;;26.87;15.90;;;;;;;13.82;49.66;94918.13;6213247;23;20246;-81
2023/03/20 09:28:54;;;;;;;28.47;16.67;;;;;;;13.98;49.30;94897.28;6213252;23;20669;-82
2023/03/20 09:31:22;;;;;;;30.83;16.77;;;;;;;14.36;47.63;94911.59;6213099;23;20602;-80
2023/03/20 09:33:49;;;;;;;28.37;16.67;;;;;;;14.52;46.78;94906.41;6212707;23;20245;-80
2023/03/20 09:36:16;;;;;;;32.03;16.17;;;;;;;14.70;47.32;94898.34;6212431;23;20167;-81
2023/03/20 09:38:44;;;;;;;25.67;15.47;;;;;;;14.83;46.11;94878.94;6213908;23;20253;-82
2023/03/20 09:41:18;;;;;;;34.37;16.90;;;;;;;14.99;45.47;94875.50;6214891;23;20170;-81
2023/03/20 09:43:56;;;;;;;27.60;16.33;;;;;;;15.24;45.51;94867.19;6212838;23;20165;-82
2023/03/20 09:46:36;;;;;;;34.60;17.20;;;;;;;15.57;45.08;94869.78;6212719;23;20232;-84
2023/03/20 09:49:13;;;;;;;30.80;15.63;;;;;;;15.87;44.02;94864.91;6212919;23;20500;-82
2023/03/20 09:51:48;;;;;;;28.20;16.47;;;;;;;16.26;43.54;94862.97;6212619;23;20154;-82
2023/03/20 09:54:27;;;;;;;34.80;16.43;;;;;;;16.65;43.02;94868.06;6212238;23;20181;-83
2023/03/20 09:56:56;;;;;;;24.27;15.53;;;;;;;16.92;43.20;94858.28;6211911;23;20158;-80
2023/03/20 09:59:25;;;;;;;30.67;15.60;;;;;;;17.23;41.84;94867.19;6212431;23;20194;-82
2023/03/20 10:01:57;;;;;;;31.27;16.67;;;;;;;17.28;40.63;94851.44;6212527;23;20166;-82
2023/03/20 10:04:29;;;;;;;30.77;16.90;;;;;;;17.33;40.74;94851.47;6212352;23;20161;-81
2023/03/20 10:06:56;;;;;;;30.58;16.23;;;;;;;17.46;41.16;94853.66;6212604;23;20181;-80
2023/03/20 10:09:27;;;;;;;28.92;16.08;;;;;;;17.70;40.80;94843.53;6212432;23;20177;-82
2023/03/20 10:12:07;;;;;;;34.22;16.38;;;;;;;17.91;40.20;94839.94;6213353;23;20154;-82
2023/03/20 10:14:53;;;;;;;30.38;15.95;;;;;;;18.27;39.61;94836.31;6212059;23;20185;-81
2023/03/20 10:17:33;;;;;;;33.85;16.23;;;;;;;18.50;38.91;94835.84;6212428;23;20181;-83
2023/03/20 10:20:14;;;;;;;27.40;15.57;;;;;;;18.76;38.46;94826.09;6213221;23;20157;-82
2023/03/20 10:22:45;;;;;;;26.83;15.98;;;;;;;19.14;37.69;94836.09;6212561;23;20162;-84
2023/03/20 10:25:24;;;;;;;27.85;15.20;;;;;;;19.39;37.12;94835.28;6212534;23;20242;-82
2023/03/20 10:28:00;;;;;;;25.13;15.73;;;;;;;19.65;36.30;94831.50;6215235;23;20170;-82
2023/03/20 10:30:37;;;;;;;25.30;14.93;;;;;;;20.04;37.06;94825.50;6210696;23;20212;-83
2023/03/20 10:33:21;;;;;;;28.15;16.20;;;;;;;20.29;35.02;94818.28;6212360;23;20614;-83
2023/03/20 10:35:54;;;;;;;22.52;14.93;;;;;;;20.44;34.49;94833.22;6212388;23;20166;-83
2023/03/20 10:38:29;;;;;;;27.58;15.73;;;;;;;20.18;34.82;94826.50;6211065;23;20170;-82
2023/03/20 10:40:59;;;;;;;25.27;15.13;;;;;;;20.51;34.39;94820.50;6211855;23;20158;-82
2023/03/20 10:43:31;;;;;;;27.05;16.35;;;;;;;20.85;34.28;94825.78;6212445;23;20256;-82
2023/03/20 10:46:04;;;;;;;25.05;15.82;;;;;;;21.31;33.11;94815.59;6211882;23;20704;-81
2023/03/20 10:48:35;;;;;;;34.03;16.38;;;;;;;21.25;32.88;94819.34;6216375;23;20604;-82
2023/03/20 10:51:05;;;;;;;27.33;15.73;;;;;;;21.41;32.15;94815.50;6213016;23;20212;-82
2023/03/20 10:53:37;;;;;;;28.17;16.25;;;;;;;21.68;31.92;94806.97;6211452;23;20163;-81
2023/03/20 10:56:12;;;;;;;21.67;15.95;;;;;;;21.98;32.20;94802.13;6212209;23;20552;-82
2023/03/20 10:58:41;;;;;;;29.58;15.90;;;;;;;22.21;31.47;94800.50;6211685;23;20216;-81
2023/03/20 11:01:08;;;;;;;29.27;16.42;;;;;;;22.57;30.88;94801.53;6210306;23;20174;-81
2023/03/20 11:03:38;;;;;;;29.05;16.33;;;;;;;22.78;30.41;94812.63;6211063;23;20509;-84
2023/03/20 11:06:11;;;;;;;29.85;16.15;;;;;;;23.14;29.68;94804.88;6210324;23;20174;-81
2023/03/20 11:08:41;;;;;;;26.90;16.35;;;;;;;23.28;29.08;94794.28;6211487;23;20166;-80
2023/03/20 11:11:10;;;;;;;23.75;15.80;;;;;;;23.44;29.11;94801.69;6208652;23;20674;-83
2023/03/20 11:13:38;;;;;;;25.05;15.80;;;;;;;23.76;28.65;94790.16;6207989;23;20556;-82
2023/03/20 11:16:19;;;;;;;27.52;16.10;;;;;;;24.10;28.98;94785.22;6206995;23;20181;-80
2023/03/20 11:18:48;;;;;;;25.23;14.55;;;;;;;24.50;27.47;94782.75;6210004;23;20186;-82
2023/03/20 11:21:19;;;;;;;21.80;14.15;;;;;;;24.70;27.83;94785.69;6210205;23;20170;-80
2023/03/20 11:23:46;;;;;;;27.73;14.13;;;;;;;24.77;26.72;94772.75;6211129;23;20860;-81
2023/03/20 11:26:16;;;;;;;29.08;14.30;;;;;;;24.86;26.96;94778.16;6210968;23;20190;-82
2023/03/20 11:28:49;;;;;;;27.52;14.30;;;;;;;24.76;26.47;94771.19;6213891;23;20511;-82
2023/03/20 11:31:18;;;;;;;24.30;14.27;;;;;;;24.83;26.28;94754.84;6213144;23;20179;-82
2023/03/20 11:33:50;;;;;;;23.77;14.27;;;;;;;25.05;26.15;94754.78;6212159;23;20165;-81
2023/03/20 11:36:23;;;;;;;24.30;13.75;;;;;;;25.39;26.43;94759.50;6213402;23;20155;-83